KMQJ

Indianapolis Regional Airport

Indianapolis, Indiana, USA
METAR KMQJ 182237Z AUTO 24013G16KT 10SM CLR 31/25 A2998 RMK AO1
Observed Flight Rules
Jun-18 @ 22:37 UTC (11 minutes ago) Visual Flight Rules
Wind Visibility Clouds
240° at 13 knots
 Gusting to 16 knots
10 miles
  • Clear skies
Temperatures Readings
Current 31°C / 88°F
Dewpoint 25°C / 77°F
Humidity 70%
Altimeter 29.98" Hg
Pressure 1015 hPa
Elevation 263
METAR KMQJ 182237Z AUTO 24013G16KT 10SM CLR 31/25 A2998 RMK AO1
Observed Flight Rules
Jun-18 @ 22:37 UTC
(11 minutes ago)
VFR
Wind Visibility
240° at 13 knots
 Gusting to 16 knots
10 miles
Clouds
  • Clear skies
Temperature Dewpoint
31°C / 88°F 25°C / 77°F
Humidity Altimeter Pressure
70% 29.98" Hg 1015 hPa